Sleepy Hollow, Illinois
Current Conditions -  °F | °C
As of 9:52 AM on Saturday 20 Dec 2014 (Local Time) from KDPA Reporting Station
Haze Haze  
Wind Chill: 29°   Ceiling: 6500
Heat Index: 29°   Visibility: 6mi
Dew Point: 24°   Wind: 3mph
Humidity: 82%   Direction: 170°S
Pressure: 30.28"   Gusts: NA
Location:  42.1081°N, 88.3234°W
Report Text: KDPA 201552Z 17003KT 6SM HZ OVC065 M02/M04 A3028 RMK AO2 SLP262 T10171044
Loading
Personal Weather Stations






























Interactive Weather Map New forecast layout! Learn more

10-Day Weather Forecast

Advertisements
Track Severe Weather on mobile